Time;durP1;ratioP1;P1;durP2;ratioP2;P2;SDS_P1;SDS_P2;PMS_P1;PMS_P2;Temp;Humidity;BMP_temperature;BMP_pressure;BME280_temperature;BME280_humidity;BME280_pressure;Samples;Min_cycle;Max_cycle;Signal;HPM_P1;HPM_P2
2022/04/06 00:01:37;;;;;;;6.03;2.53;;;10.90;99.90;;;;;;5011261;28;20045;-68
2022/04/06 00:04:03;;;;;;;10.82;2.28;;;10.90;99.90;;;;;;5024626;28;20033;-68
2022/04/06 00:06:29;;;;;;;7.45;2.53;;;11.00;99.90;;;;;;5011592;28;20042;-68
2022/04/06 00:08:55;;;;;;;2.70;1.42;;;10.90;99.90;;;;;;5029722;28;20032;-68
2022/04/06 00:11:21;;;;;;;8.93;2.45;;;11.00;99.90;;;;;;5018973;28;20120;-68
2022/04/06 00:13:48;;;;;;;5.43;2.45;;;10.90;99.90;;;;;;5016929;28;20022;-68
2022/04/06 00:16:14;;;;;;;3.60;2.33;;;11.00;99.90;;;;;;5031534;28;20029;-69
2022/04/06 00:18:40;;;;;;;15.05;3.20;;;11.00;99.90;;;;;;5011729;28;20088;-68
2022/04/06 00:21:05;;;;;;;11.85;3.75;;;11.00;99.90;;;;;;5011293;28;20033;-68
2022/04/06 00:23:31;;;;;;;5.78;1.52;;;11.00;99.90;;;;;;5024308;28;20405;-69
2022/04/06 00:25:59;;;;;;;6.20;3.42;;;11.00;99.90;;;;;;5013547;28;20037;-68
2022/04/06 00:28:25;;;;;;;6.10;1.95;;;11.00;99.90;;;;;;5010616;28;20385;-69
2022/04/06 00:30:51;;;;;;;0.65;0.65;;;11.00;99.90;;;;;;5026014;28;20048;-68
2022/04/06 00:33:17;;;;;;;4.70;2.30;;;11.00;99.90;;;;;;5031364;28;20040;-68
2022/04/06 00:35:42;;;;;;;2.40;1.52;;;11.00;99.90;;;;;;5017197;28;20038;-68
2022/04/06 00:38:11;;;;;;;3.22;1.88;;;11.00;99.90;;;;;;5031109;28;20385;-68
2022/04/06 00:40:38;;;;;;;3.17;1.77;;;11.00;99.90;;;;;;5014482;28;20041;-69
2022/04/06 00:43:08;;;;;;;2.38;1.45;;;10.90;99.90;;;;;;5009572;28;20037;-68
2022/04/06 00:45:34;;;;;;;9.10;4.20;;;11.00;99.90;;;;;;5027928;28;20088;-68
2022/04/06 00:48:00;;;;;;;4.57;1.65;;;11.00;99.90;;;;;;5030744;28;20068;-68
2022/04/06 00:50:26;;;;;;;10.07;2.40;;;11.00;99.90;;;;;;5029076;28;20477;-68
2022/04/06 00:52:56;;;;;;;4.53;2.67;;;11.00;99.90;;;;;;5025176;28;20026;-69
2022/04/06 00:55:29;;;;;;;10.48;2.47;;;11.00;99.90;;;;;;5019481;28;20033;-68
2022/04/06 00:57:56;;;;;;;7.43;1.85;;;11.00;99.90;;;;;;5030207;28;20045;-68
2022/04/06 01:00:22;;;;;;;8.80;2.55;;;11.00;99.90;;;;;;5030160;28;20427;-68
2022/04/06 01:02:48;;;;;;;7.82;3.67;;;11.10;99.90;;;;;;5010302;28;20034;-68
2022/04/06 01:05:13;;;;;;;2.40;1.67;;;11.00;99.90;;;;;;5025541;28;20041;-68
2022/04/06 01:07:42;;;;;;;5.72;2.50;;;11.10;99.90;;;;;;5030844;28;20045;-69
2022/04/06 01:10:10;;;;;;;7.22;3.33;;;11.10;99.90;;;;;;5029575;28;20037;-68
2022/04/06 01:12:38;;;;;;;15.23;4.05;;;11.10;99.90;;;;;;5030574;28;20741;-68
2022/04/06 01:15:04;;;;;;;5.60;2.65;;;11.10;99.90;;;;;;5030784;28;20087;-68
2022/04/06 01:17:35;;;;;;;1.95;1.40;;;11.10;99.90;;;;;;5030212;28;20116;-69
2022/04/06 01:20:02;;;;;;;11.30;3.17;;;11.10;99.90;;;;;;5030742;28;20033;-68
2022/04/06 01:22:28;;;;;;;1.92;1.23;;;11.10;99.90;;;;;;5021051;28;20037;-68
2022/04/06 01:24:54;;;;;;;14.70;5.43;;;11.10;99.90;;;;;;5018009;28;20049;-68
2022/04/06 01:27:20;;;;;;;12.88;5.35;;;11.00;99.90;;;;;;5017327;28;20053;-68
2022/04/06 01:29:48;;;;;;;11.68;4.90;;;11.00;99.90;;;;;;5020649;28;20491;-69
2022/04/06 01:32:18;;;;;;;16.42;5.50;;;11.00;99.90;;;;;;5030049;28;20116;-68
2022/04/06 01:34:44;;;;;;;13.80;4.82;;;11.00;99.90;;;;;;5030570;28;20531;-68
2022/04/06 01:37:11;;;;;;;5.75;2.00;;;11.00;99.90;;;;;;5030376;28;20060;-69
2022/04/06 01:39:38;;;;;;;9.68;3.42;;;10.90;99.90;;;;;;5027075;28;20034;-68
2022/04/06 01:42:06;;;;;;;5.45;2.70;;;10.90;99.90;;;;;;5028460;28;20095;-68
2022/04/06 01:44:33;;;;;;;14.02;4.70;;;10.90;99.90;;;;;;5029799;28;20071;-68
2022/04/06 01:47:01;;;;;;;17.55;4.68;;;10.90;99.90;;;;;;5020364;28;20030;-68
2022/04/06 01:52:17;;;;;;;8.27;3.22;;;10.90;99.90;;;;;;5010700;28;20049;-68
2022/04/06 01:54:47;;;;;;;6.78;3.75;;;10.90;99.90;;;;;;5014406;28;20072;-69
2022/04/06 01:57:13;;;;;;;10.40;3.20;;;10.90;99.90;;;;;;5014812;28;20045;-68
2022/04/06 01:59:39;;;;;;;10.35;4.60;;;10.90;99.90;;;;;;5033040;28;20029;-68
2022/04/06 02:02:05;;;;;;;7.18;2.45;;;10.90;99.90;;;;;;5019209;28;20034;-69
2022/04/06 02:04:31;;;;;;;6.00;2.53;;;10.90;99.90;;;;;;5016912;28;20018;-68
2022/04/06 02:06:57;;;;;;;4.05;2.30;;;10.90;99.90;;;;;;5027490;28;20086;-68
2022/04/06 02:09:23;;;;;;;13.05;4.05;;;10.90;99.90;;;;;;5033882;28;20064;-68
2022/04/06 02:11:49;;;;;;;6.25;3.17;;;10.90;99.90;;;;;;5018226;28;20069;-68
2022/04/06 02:14:15;;;;;;;12.65;3.35;;;10.90;99.90;;;;;;5013319;28;20417;-68
2022/04/06 02:16:40;;;;;;;3.10;1.90;;;10.90;99.90;;;;;;5016178;28;20044;-68
2022/04/06 02:19:06;;;;;;;11.00;2.70;;;10.90;99.90;;;;;;5014219;28;20022;-68
2022/04/06 02:21:33;;;;;;;7.97;3.70;;;10.90;99.90;;;;;;5014988;28;20393;-68
2022/04/06 02:23:58;;;;;;;15.80;2.83;;;10.90;99.90;;;;;;5026054;28;20040;-68
2022/04/06 02:26:25;;;;;;;3.38;2.08;;;10.90;99.90;;;;;;5013668;28;20045;-69
2022/04/06 02:28:55;;;;;;;10.68;3.65;;;10.90;99.90;;;;;;5012864;28;20026;-68
2022/04/06 02:31:21;;;;;;;9.75;3.67;;;11.00;99.90;;;;;;5027446;28;20065;-68
2022/04/06 02:33:50;;;;;;;6.05;3.10;;;10.90;99.90;;;;;;5025020;28;20050;-68
2022/04/06 02:36:15;;;;;;;8.82;2.60;;;10.90;99.90;;;;;;5012517;28;20034;-68
2022/04/06 02:38:41;;;;;;;11.30;3.53;;;10.90;99.90;;;;;;5013151;28;20037;-68
2022/04/06 02:41:07;;;;;;;7.30;3.15;;;10.90;99.90;;;;;;5028779;28;20037;-68
2022/04/06 02:43:36;;;;;;;4.40;2.13;;;10.80;99.90;;;;;;5032516;28;20022;-68
2022/04/06 02:46:02;;;;;;;11.23;3.40;;;10.80;99.90;;;;;;5031474;28;20084;-68
2022/04/06 02:48:28;;;;;;;7.82;3.20;;;10.80;99.90;;;;;;5033009;28;20064;-68
2022/04/06 02:50:54;;;;;;;6.13;2.22;;;10.90;99.90;;;;;;5032452;28;20068;-69
2022/04/06 02:53:20;;;;;;;9.48;3.25;;;10.80;99.90;;;;;;5032673;28;20045;-68
2022/04/06 02:55:45;;;;;;;8.77;3.33;;;10.80;99.90;;;;;;5027330;28;20033;-67
2022/04/06 02:58:11;;;;;;;8.25;2.70;;;10.80;99.90;;;;;;5031950;28;20052;-67
2022/04/06 03:00:37;;;;;;;7.47;2.35;;;10.80;99.90;;;;;;5028596;28;20041;-67
2022/04/06 03:03:03;;;;;;;6.68;2.15;;;10.80;99.90;;;;;;5031517;28;20029;-67
2022/04/06 03:05:35;;;;;;;8.70;2.70;;;10.80;99.90;;;;;;5030955;28;20049;-67
2022/04/06 03:08:00;;;;;;;7.03;2.97;;;10.70;99.90;;;;;;5023646;28;20080;-67
2022/04/06 03:10:26;;;;;;;5.10;3.08;;;10.70;99.90;;;;;;5011911;28;20033;-67
2022/04/06 03:12:52;;;;;;;11.27;2.97;;;10.70;99.90;;;;;;5021344;28;20033;-66
2022/04/06 03:15:18;;;;;;;6.90;2.55;;;10.80;99.90;;;;;;5032331;28;20045;-67
2022/04/06 03:17:44;;;;;;;7.45;2.67;;;10.70;99.90;;;;;;5025240;28;20026;-67
2022/04/06 03:20:14;;;;;;;6.45;2.15;;;10.80;99.90;;;;;;5025776;28;20091;-67
2022/04/06 03:22:41;;;;;;;10.30;3.58;;;10.80;99.90;;;;;;5020196;28;20057;-67
2022/04/06 03:25:08;;;;;;;5.28;2.25;;;10.80;99.90;;;;;;5018149;28;20042;-67
2022/04/06 03:27:34;;;;;;;10.88;2.42;;;10.80;99.90;;;;;;5031422;28;20026;-67
2022/04/06 03:30:01;;;;;;;4.03;1.73;;;10.80;99.90;;;;;;5024587;28;20038;-67
2022/04/06 03:32:26;;;;;;;7.45;1.85;;;10.70;99.90;;;;;;5018373;28;20043;-67
2022/04/06 03:34:52;;;;;;;6.18;2.00;;;10.70;99.90;;;;;;5025459;28;20034;-67
2022/04/06 03:37:18;;;;;;;5.90;1.88;;;10.70;99.90;;;;;;5025523;28;20064;-67
2022/04/06 03:39:43;;;;;;;5.40;2.15;;;10.70;99.90;;;;;;5030639;28;20075;-67
2022/04/06 03:42:09;;;;;;;15.65;3.13;;;10.70;99.90;;;;;;5030726;28;20029;-67
2022/04/06 03:44:35;;;;;;;3.55;1.98;;;10.70;99.90;;;;;;5011605;28;20441;-67
2022/04/06 03:47:00;;;;;;;4.85;1.75;;;10.70;99.90;;;;;;5026256;28;20033;-67
2022/04/06 03:49:26;;;;;;;4.15;1.50;;;10.60;99.90;;;;;;5031819;28;20037;-67
2022/04/06 03:51:52;;;;;;;4.50;1.65;;;10.60;99.90;;;;;;5016185;28;20049;-67
2022/04/06 03:54:20;;;;;;;6.18;2.05;;;10.50;99.90;;;;;;5011967;28;20038;-67
2022/04/06 03:56:46;;;;;;;6.82;1.77;;;10.60;99.90;;;;;;5014694;28;20026;-68
2022/04/06 03:59:12;;;;;;;8.05;1.58;;;10.60;99.90;;;;;;4997154;28;1041492;-67
2022/04/06 04:01:38;;;;;;;4.75;2.05;;;10.50;99.90;;;;;;5031271;28;20037;-67
2022/04/06 04:04:04;;;;;;;2.38;1.60;;;10.60;99.90;;;;;;5029761;28;20022;-67
2022/04/06 04:06:32;;;;;;;5.45;2.30;;;10.60;99.90;;;;;;5018241;28;20121;-67
2022/04/06 04:08:58;;;;;;;3.88;1.58;;;10.50;99.90;;;;;;5030834;28;20029;-67
2022/04/06 04:11:24;;;;;;;5.55;2.35;;;10.60;99.90;;;;;;5030248;28;20420;-67
2022/04/06 04:13:50;;;;;;;6.35;1.88;;;10.60;99.90;;;;;;5030923;28;20034;-67
2022/04/06 04:16:15;;;;;;;8.32;1.65;;;10.60;99.90;;;;;;5031154;28;20424;-67
2022/04/06 04:18:44;;;;;;;4.68;2.13;;;10.50;99.90;;;;;;5031169;28;20033;-67
2022/04/06 04:23:54;;;;;;;2.33;1.98;;;10.60;99.90;;;;;;5011829;28;20026;-66
2022/04/06 04:26:20;;;;;;;3.95;1.90;;;10.60;99.90;;;;;;5015662;28;20083;-66
2022/04/06 04:28:45;;;;;;;6.60;1.83;;;10.50;99.90;;;;;;5019367;28;20026;-66
2022/04/06 04:31:11;;;;;;;4.10;1.60;;;10.60;99.90;;;;;;5011177;28;20037;-66
2022/04/06 04:33:36;;;;;;;7.15;2.70;;;10.60;99.90;;;;;;5011316;28;20034;-66
2022/04/06 04:36:02;;;;;;;5.43;2.25;;;10.60;99.90;;;;;;5027562;28;20034;-66
2022/04/06 04:38:28;;;;;;;4.05;2.40;;;10.60;99.90;;;;;;5031090;28;20067;-67
2022/04/06 04:40:54;;;;;;;7.45;2.75;;;10.50;99.90;;;;;;5029130;28;20030;-67
2022/04/06 04:43:20;;;;;;;3.00;1.73;;;10.60;99.90;;;;;;5031141;28;20029;-66
2022/04/06 04:45:46;;;;;;;6.22;3.13;;;10.50;99.90;;;;;;5030617;28;20053;-67
2022/04/06 04:48:12;;;;;;;9.20;3.17;;;10.50;99.90;;;;;;5030358;28;20033;-69
2022/04/06 04:50:41;;;;;;;9.75;2.92;;;10.50;99.90;;;;;;5030496;28;20034;-67
2022/04/06 04:53:06;;;;;;;15.65;3.78;;;10.40;99.90;;;;;;5017034;28;20169;-67
2022/04/06 04:55:33;;;;;;;9.43;3.22;;;10.50;99.90;;;;;;5010730;28;20116;-67
2022/04/06 04:57:59;;;;;;;9.23;3.35;;;10.50;99.90;;;;;;5011004;28;20034;-67
2022/04/06 05:00:25;;;;;;;7.18;3.40;;;10.40;99.90;;;;;;5027191;28;20064;-67
2022/04/06 05:02:51;;;;;;;19.67;4.40;;;10.40;99.90;;;;;;5029424;28;20032;-67
2022/04/06 05:05:19;;;;;;;10.20;3.50;;;10.40;99.90;;;;;;5027645;28;20412;-67
2022/04/06 05:07:45;;;;;;;11.60;2.75;;;10.40;99.90;;;;;;5020923;28;20037;-67
2022/04/06 05:10:10;;;;;;;3.67;2.25;;;10.40;99.90;;;;;;5015425;28;20362;-68
2022/04/06 05:12:39;;;;;;;14.90;3.05;;;10.40;99.90;;;;;;5030630;28;20390;-68
2022/04/06 05:15:06;;;;;;;10.07;3.63;;;10.40;99.90;;;;;;5015025;28;20487;-69
2022/04/06 05:17:34;;;;;;;12.65;3.83;;;10.40;99.90;;;;;;5020131;28;20034;-68
2022/04/06 05:20:00;;;;;;;10.63;2.92;;;10.50;99.90;;;;;;5016929;28;20488;-68
2022/04/06 05:22:25;;;;;;;10.32;3.95;;;10.40;99.90;;;;;;5030277;28;20021;-67
2022/04/06 05:24:51;;;;;;;11.68;4.90;;;10.40;99.90;;;;;;5027876;28;20120;-67
2022/04/06 05:27:17;;;;;;;4.65;3.42;;;10.40;99.90;;;;;;5028471;28;20030;-67
2022/04/06 05:29:42;;;;;;;12.60;4.03;;;10.40;99.90;;;;;;5030368;28;20147;-67
2022/04/06 05:32:08;;;;;;;11.27;3.63;;;10.40;99.90;;;;;;5029746;28;20048;-67
2022/04/06 05:34:35;;;;;;;10.52;4.15;;;10.30;99.90;;;;;;5030282;28;20385;-67
2022/04/06 05:37:02;;;;;;;11.57;3.95;;;10.30;99.90;;;;;;5032192;28;20037;-67
2022/04/06 05:39:27;;;;;;;11.68;4.30;;;10.30;99.90;;;;;;5033415;28;20022;-67
2022/04/06 05:41:53;;;;;;;11.50;3.42;;;10.30;99.90;;;;;;5032124;28;20354;-67
2022/04/06 05:44:18;;;;;;;12.60;4.70;;;10.20;99.90;;;;;;5031114;28;20060;-68
2022/04/06 05:46:44;;;;;;;17.05;4.05;;;10.30;99.90;;;;;;5031251;28;20135;-67
2022/04/06 05:49:10;;;;;;;9.43;3.67;;;10.20;99.90;;;;;;5031938;28;20164;-67
2022/04/06 05:51:36;;;;;;;12.48;4.28;;;10.30;99.90;;;;;;5032472;28;20022;-67
2022/04/06 05:54:02;;;;;;;14.65;4.00;;;10.30;99.90;;;;;;5014360;28;20358;-67
2022/04/06 05:56:29;;;;;;;11.38;4.55;;;10.20;99.90;;;;;;5027379;28;20088;-67
2022/04/06 05:58:55;;;;;;;5.95;3.10;;;10.20;99.90;;;;;;5030665;28;20140;-67
2022/04/06 06:01:20;;;;;;;12.63;3.63;;;10.20;99.90;;;;;;5016702;28;20539;-68
2022/04/06 06:03:46;;;;;;;7.68;3.03;;;10.30;99.90;;;;;;5030371;28;20072;-70
2022/04/06 06:06:12;;;;;;;9.35;3.15;;;10.30;99.90;;;;;;5031743;28;20095;-67
2022/04/06 06:08:37;;;;;;;3.83;2.22;;;10.30;99.90;;;;;;5032264;28;20037;-68
2022/04/06 06:11:04;;;;;;;13.90;3.58;;;10.30;99.90;;;;;;5030666;28;20079;-67
2022/04/06 06:13:31;;;;;;;9.30;3.35;;;10.30;99.90;;;;;;5030384;28;20120;-67
2022/04/06 06:15:56;;;;;;;10.48;4.35;;;10.30;99.90;;;;;;5031298;28;20022;-68
2022/04/06 06:18:24;;;;;;;12.82;3.70;;;10.30;99.90;;;;;;5023482;28;20085;-67
2022/04/06 06:20:50;;;;;;;11.05;3.67;;;10.30;99.90;;;;;;5029297;28;20029;-68
2022/04/06 06:23:15;;;;;;;5.80;3.30;;;10.30;99.90;;;;;;5031739;28;20117;-65
2022/04/06 06:25:41;;;;;;;2.75;2.03;;;10.30;99.90;;;;;;5032120;28;20109;-66
2022/04/06 06:28:07;;;;;;;8.88;3.47;;;10.30;99.90;;;;;;5031547;28;20544;-65
2022/04/06 06:30:33;;;;;;;6.68;3.30;;;10.20;99.90;;;;;;5031963;28;20029;-66
2022/04/06 06:32:59;;;;;;;7.60;3.05;;;10.20;99.90;;;;;;5032078;28;20036;-65
2022/04/06 06:35:25;;;;;;;5.80;2.90;;;10.20;99.90;;;;;;5031084;28;20037;-67
2022/04/06 06:37:52;;;;;;;11.98;3.92;;;10.30;99.90;;;;;;5031733;28;20067;-66
2022/04/06 06:40:19;;;;;;;5.10;2.47;;;10.20;99.90;;;;;;5031941;28;20057;-67
2022/04/06 06:42:46;;;;;;;9.20;2.90;;;10.20;99.90;;;;;;5031202;28;20049;-67
2022/04/06 06:45:12;;;;;;;3.40;2.22;;;10.20;99.90;;;;;;5030949;28;20036;-68
2022/04/06 06:47:40;;;;;;;6.38;2.67;;;10.20;99.90;;;;;;5024253;28;20049;-67
2022/04/06 06:50:10;;;;;;;5.80;2.70;;;10.30;99.90;;;;;;5025857;28;20030;-67
2022/04/06 06:52:36;;;;;;;8.15;2.90;;;10.20;99.90;;;;;;5023756;28;20038;-67
2022/04/06 06:55:07;;;;;;;7.43;2.28;;;10.20;99.90;;;;;;5028499;28;20044;-68
2022/04/06 06:57:34;;;;;;;7.05;3.13;;;10.30;99.90;;;;;;5032418;28;20160;-69
2022/04/06 07:00:00;;;;;;;4.25;1.88;;;10.30;99.90;;;;;;5030974;28;20048;-69
2022/04/06 07:02:26;;;;;;;8.43;2.63;;;10.30;99.90;;;;;;5026251;28;20030;-68
2022/04/06 07:04:51;;;;;;;10.95;3.33;;;10.30;99.90;;;;;;5026160;28;20029;-67
2022/04/06 07:07:17;;;;;;;7.43;2.90;;;10.20;99.90;;;;;;5013754;28;20030;-67
2022/04/06 07:09:43;;;;;;;11.23;2.85;;;10.20;99.90;;;;;;5023394;28;20056;-68
2022/04/06 07:12:10;;;;;;;6.57;2.95;;;10.20;99.90;;;;;;5031237;28;20036;-68
2022/04/06 07:14:37;;;;;;;5.60;2.90;;;10.20;99.90;;;;;;5031050;28;20027;-68
2022/04/06 07:17:03;;;;;;;10.60;2.78;;;10.20;99.90;;;;;;5027033;28;20033;-68
2022/04/06 07:19:29;;;;;;;6.90;2.88;;;10.20;99.90;;;;;;5020292;28;20034;-68
2022/04/06 07:21:55;;;;;;;9.10;3.20;;;10.20;99.90;;;;;;5029355;28;20369;-67
2022/04/06 07:24:21;;;;;;;6.07;2.97;;;10.20;99.90;;;;;;5025590;28;20041;-67
2022/04/06 07:26:46;;;;;;;8.35;3.20;;;10.20;99.90;;;;;;5028455;28;20045;-67
2022/04/06 07:29:14;;;;;;;10.80;2.83;;;10.20;99.90;;;;;;5030005;28;20029;-69
2022/04/06 07:31:42;;;;;;;7.15;2.83;;;10.10;99.90;;;;;;5024900;28;20056;-68
2022/04/06 07:34:09;;;;;;;4.32;2.47;;;10.10;99.90;;;;;;5019052;28;20047;-69
2022/04/06 07:36:35;;;;;;;12.00;2.20;;;10.10;99.90;;;;;;5029499;28;20026;-68
2022/04/06 07:39:05;;;;;;;5.82;2.20;;;10.20;99.90;;;;;;5021243;28;20041;-68
2022/04/06 07:41:31;;;;;;;3.25;1.95;;;10.20;99.90;;;;;;5030805;28;20040;-68
2022/04/06 07:43:57;;;;;;;8.88;2.90;;;10.20;99.90;;;;;;5026462;28;20037;-68
2022/04/06 07:46:23;;;;;;;7.53;2.65;;;10.20;99.90;;;;;;5011909;28;20076;-68
2022/04/06 07:48:49;;;;;;;5.60;1.90;;;10.20;99.90;;;;;;5029048;28;20466;-68
2022/04/06 07:51:17;;;;;;;6.90;1.90;;;10.20;99.90;;;;;;5018181;28;20130;-69
2022/04/06 07:53:43;;;;;;;3.90;2.15;;;10.10;99.90;;;;;;5030134;28;20447;-68
2022/04/06 07:56:09;;;;;;;6.93;2.38;;;10.10;99.90;;;;;;5029908;28;20063;-69
2022/04/06 07:58:38;;;;;;;6.53;2.00;;;10.10;99.90;;;;;;5029037;28;20412;-68
2022/04/06 08:01:06;;;;;;;6.05;2.50;;;10.10;99.90;;;;;;5027585;28;20547;-68
2022/04/06 08:03:32;;;;;;;7.65;2.33;;;10.20;99.90;;;;;;5029339;28;20502;-69
2022/04/06 08:05:57;;;;;;;4.75;1.90;;;10.10;99.90;;;;;;5027926;28;20049;-68
2022/04/06 08:08:24;;;;;;;6.22;2.42;;;10.20;99.90;;;;;;5030093;28;20025;-68
2022/04/06 08:10:49;;;;;;;4.22;2.30;;;10.20;99.90;;;;;;5023509;28;20072;-68
2022/04/06 08:13:15;;;;;;;7.18;2.03;;;10.20;99.90;;;;;;5012208;28;20054;-68
2022/04/06 08:15:41;;;;;;;5.65;2.30;;;10.20;99.90;;;;;;5022911;28;20473;-68
2022/04/06 08:18:07;;;;;;;7.88;2.28;;;10.20;99.90;;;;;;5013031;28;20080;-68
2022/04/06 08:20:33;;;;;;;10.48;2.95;;;10.20;99.90;;;;;;5019045;28;20068;-67
2022/04/06 08:22:59;;;;;;;9.52;2.63;;;10.20;99.90;;;;;;5028803;28;20116;-66
2022/04/06 08:25:26;;;;;;;15.77;2.90;;;10.20;99.90;;;;;;5016734;28;20569;-66
2022/04/06 08:27:52;;;;;;;4.28;1.98;;;10.20;99.90;;;;;;5029390;28;20079;-66
2022/04/06 08:30:20;;;;;;;1.55;1.35;;;10.20;99.90;;;;;;5022552;28;20036;-66
2022/04/06 08:32:46;;;;;;;6.30;2.20;;;10.20;99.90;;;;;;5026413;28;20114;-66
2022/04/06 08:35:12;;;;;;;4.30;2.30;;;10.20;99.90;;;;;;5027992;28;20034;-66
2022/04/06 08:37:39;;;;;;;7.35;2.33;;;10.30;99.90;;;;;;5028255;28;20033;-66
2022/04/06 08:40:11;;;;;;;4.55;2.15;;;10.30;99.90;;;;;;5027189;28;20056;-66
2022/04/06 08:42:37;;;;;;;10.18;2.58;;;10.20;99.90;;;;;;5028125;28;20033;-66
2022/04/06 08:45:05;;;;;;;9.40;2.33;;;10.20;99.90;;;;;;5027999;28;20079;-66
2022/04/06 08:47:31;;;;;;;10.95;2.50;;;10.20;99.90;;;;;;5027730;28;20087;-66
2022/04/06 08:49:58;;;;;;;7.10;2.10;;;10.20;99.90;;;;;;5029148;28;20064;-66
2022/04/06 08:52:23;;;;;;;9.98;2.92;;;10.20;99.90;;;;;;5027961;28;20037;-66
2022/04/06 08:54:49;;;;;;;3.90;2.03;;;10.20;99.90;;;;;;5027436;28;20029;-66
2022/04/06 08:57:17;;;;;;;8.90;2.80;;;10.20;99.90;;;;;;5028171;28;20038;-66
2022/04/06 08:59:42;;;;;;;9.15;2.28;;;10.30;99.90;;;;;;5027429;28;20042;-66
2022/04/06 09:02:17;;;;;;;6.07;2.60;;;10.30;99.90;;;;;;5027497;28;20028;-66
2022/04/06 09:04:42;;;;;;;11.90;3.60;;;10.20;99.90;;;;;;5031333;28;20468;-66
2022/04/06 09:07:10;;;;;;;7.88;2.70;;;10.30;99.90;;;;;;5032018;28;20091;-66
2022/04/06 09:09:36;;;;;;;9.05;3.10;;;10.30;99.90;;;;;;5031863;28;20150;-67
2022/04/06 09:12:08;;;;;;;13.43;3.38;;;10.20;99.90;;;;;;5031930;28;20032;-67
2022/04/06 09:14:34;;;;;;;10.40;4.10;;;10.20;99.90;;;;;;5031745;28;20496;-67
2022/04/06 09:17:07;;;;;;;11.82;3.17;;;10.10;99.90;;;;;;5031957;28;20025;-67
2022/04/06 09:19:37;;;;;;;11.40;3.10;;;10.20;99.90;;;;;;5033249;28;20029;-67
2022/04/06 09:22:07;;;;;;;12.63;2.88;;;10.10;99.90;;;;;;5033359;28;20287;-67
2022/04/06 09:24:32;;;;;;;8.45;3.22;;;10.10;99.90;;;;;;5032275;28;20536;-67
2022/04/06 09:27:00;;;;;;;13.98;3.40;;;10.20;99.90;;;;;;5032492;28;20128;-67
2022/04/06 09:29:26;;;;;;;10.77;3.53;;;10.20;99.90;;;;;;5031829;28;20033;-67
2022/04/06 09:31:53;;;;;;;9.45;3.17;;;10.30;99.90;;;;;;5032990;28;20030;-67
2022/04/06 09:34:23;;;;;;;7.75;2.80;;;10.30;99.90;;;;;;5032534;28;20029;-67
2022/04/06 09:36:56;;;;;;;10.73;3.20;;;10.30;99.90;;;;;;5031672;28;20032;-67
2022/04/06 09:39:44;;;;;;;5.75;2.50;;;10.40;99.90;;;;;;5033031;28;20060;-67
2022/04/06 09:42:22;;;;;;;12.68;2.78;;;10.30;99.90;;;;;;5032961;28;20021;-66
2022/04/06 09:47:40;;;;;;;8.55;4.07;;;10.40;99.90;;;;;;5031988;28;20037;-67
2022/04/06 09:50:22;;;;;;;12.30;2.83;;;10.40;99.90;;;;;;5029789;28;20033;-66
2022/04/06 09:52:51;;;;;;;6.30;2.28;;;10.50;99.90;;;;;;5014317;28;20061;-66
2022/04/06 09:55:17;;;;;;;13.27;3.17;;;10.50;99.90;;;;;;5013883;28;20473;-67
2022/04/06 09:57:47;;;;;;;6.72;2.80;;;10.60;99.90;;;;;;5013489;28;20381;-66
2022/04/06 10:00:24;;;;;;;11.38;3.08;;;10.50;99.90;;;;;;5013722;28;20085;-66
2022/04/06 10:03:07;;;;;;;12.18;3.30;;;10.60;99.90;;;;;;5027429;28;20639;-67
2022/04/06 10:05:38;;;;;;;8.52;3.55;;;10.70;99.90;;;;;;5027383;28;20124;-66
2022/04/06 10:08:06;;;;;;;7.93;2.65;;;10.60;99.90;;;;;;5028288;28;20468;-67
2022/04/06 10:10:33;;;;;;;9.23;2.55;;;10.70;99.90;;;;;;5029211;28;20051;-67
2022/04/06 10:12:59;;;;;;;8.68;2.63;;;10.80;99.90;;;;;;5028837;28;20033;-67
2022/04/06 10:15:26;;;;;;;13.50;3.17;;;10.80;99.90;;;;;;5029443;28;20029;-66
2022/04/06 10:17:54;;;;;;;13.48;2.97;;;10.80;99.90;;;;;;5030471;28;20064;-66
2022/04/06 10:20:27;;;;;;;9.15;2.53;;;10.80;99.90;;;;;;5030323;28;20026;-66
2022/04/06 10:23:11;;;;;;;8.38;2.88;;;10.80;99.90;;;;;;5030511;28;20116;-66
2022/04/06 10:25:55;;;;;;;13.75;4.13;;;10.90;99.90;;;;;;5030056;28;20489;-66
2022/04/06 10:28:23;;;;;;;7.55;2.75;;;10.90;99.90;;;;;;5030623;28;20025;-66
2022/04/06 10:31:19;;;;;;;16.20;3.10;;;10.90;99.90;;;;;;5030669;28;20040;-66
2022/04/06 10:33:45;;;;;;;6.82;2.50;;;10.90;99.90;;;;;;5028680;28;20473;-67
2022/04/06 10:36:30;;;;;;;5.15;2.75;;;11.00;99.90;;;;;;5028185;28;20116;-67
2022/04/06 10:39:08;;;;;;;9.93;3.00;;;11.00;99.90;;;;;;5027500;28;20388;-67
2022/04/06 10:41:39;;;;;;;18.48;4.07;;;11.00;99.90;;;;;;5028240;28;20060;-67
2022/04/06 10:44:05;;;;;;;12.35;2.97;;;11.00;99.90;;;;;;5028949;28;20025;-68
2022/04/06 10:46:40;;;;;;;11.10;3.88;;;11.00;99.90;;;;;;5028322;28;20037;-68
2022/04/06 10:49:15;;;;;;;10.38;3.15;;;11.00;99.90;;;;;;5030274;28;20057;-68
2022/04/06 10:51:46;;;;;;;14.27;3.20;;;11.00;99.90;;;;;;5028571;28;20042;-67
2022/04/06 10:54:14;;;;;;;15.77;3.20;;;11.00;99.90;;;;;;5029476;28;20029;-67
2022/04/06 10:56:49;;;;;;;12.93;2.97;;;11.00;99.90;;;;;;5030472;28;20034;-67
2022/04/06 10:59:17;;;;;;;12.63;3.58;;;11.00;99.90;;;;;;5029783;28;20045;-67
2022/04/06 11:01:46;;;;;;;9.88;2.88;;;11.00;99.90;;;;;;5029084;28;20033;-66
2022/04/06 11:04:18;;;;;;;7.90;2.58;;;11.10;99.90;;;;;;5028042;28;20477;-66
2022/04/06 11:06:49;;;;;;;18.90;3.75;;;11.10;99.90;;;;;;5027903;28;20040;-66
2022/04/06 11:12:18;;;;;;;7.03;2.95;;;11.20;99.90;;;;;;5029445;28;20841;-66
2022/04/06 11:14:48;;;;;;;11.65;2.90;;;11.30;99.90;;;;;;5029812;28;20026;-67
2022/04/06 11:17:32;;;;;;;9.32;2.80;;;11.30;99.90;;;;;;5031935;28;20029;-66
2022/04/06 11:20:00;;;;;;;7.70;2.28;;;11.30;99.90;;;;;;5032020;28;20026;-70
2022/04/06 11:22:26;;;;;;;8.07;2.90;;;11.40;99.90;;;;;;5018647;28;20472;-69
2022/04/06 11:24:55;;;;;;;11.45;3.42;;;11.40;99.90;;;;;;5031767;28;20091;-67
2022/04/06 11:27:35;;;;;;;12.80;3.00;;;11.40;99.90;;;;;;5022931;28;20054;-67
2022/04/06 11:30:19;;;;;;;12.48;3.03;;;11.50;99.90;;;;;;5026868;28;20645;-67
2022/04/06 11:32:59;;;;;;;13.43;3.15;;;11.50;99.90;;;;;;5031722;28;20037;-67
2022/04/06 11:35:30;;;;;;;7.72;2.47;;;11.50;99.90;;;;;;5023506;28;20041;-67
2022/04/06 11:37:56;;;;;;;10.93;3.05;;;11.50;99.90;;;;;;5024688;28;20033;-66
2022/04/06 11:40:24;;;;;;;9.25;2.60;;;11.60;99.90;;;;;;5012390;28;20038;-67
2022/04/06 11:42:54;;;;;;;11.38;2.45;;;11.70;99.90;;;;;;5027915;28;20029;-67
2022/04/06 11:45:28;;;;;;;15.38;3.40;;;11.60;99.90;;;;;;5021435;28;20052;-67
2022/04/06 11:48:12;;;;;;;14.25;2.83;;;11.60;99.90;;;;;;5029137;28;20634;-69
2022/04/06 11:50:39;;;;;;;13.85;4.05;;;11.70;99.90;;;;;;5028546;28;20392;-69
2022/04/06 11:53:09;;;;;;;19.23;3.22;;;11.70;99.90;;;;;;5029364;28;20037;-69
2022/04/06 11:55:48;;;;;;;14.57;3.20;;;11.70;99.90;;;;;;5029242;28;20033;-68
2022/04/06 11:58:32;;;;;;;16.08;3.13;;;11.80;99.90;;;;;;5029229;28;20099;-69
2022/04/06 12:01:02;;;;;;;9.73;2.97;;;11.80;99.90;;;;;;5028255;28;20500;-67
2022/04/06 12:03:30;;;;;;;8.93;2.60;;;11.80;99.90;;;;;;5028229;28;20029;-67
2022/04/06 12:05:59;;;;;;;8.88;3.15;;;11.90;99.90;;;;;;5021873;28;20045;-68
2022/04/06 12:08:25;;;;;;;7.68;2.92;;;11.90;99.90;;;;;;5028391;28;20025;-69
2022/04/06 12:10:52;;;;;;;10.75;3.78;;;12.00;99.90;;;;;;5020242;28;20037;-68
2022/04/06 12:13:21;;;;;;;11.02;3.05;;;12.00;99.90;;;;;;5027742;28;20025;-67
2022/04/06 12:15:48;;;;;;;10.10;2.70;;;12.00;99.90;;;;;;5028542;28;20086;-67
2022/04/06 12:18:21;;;;;;;16.10;3.05;;;12.00;99.90;;;;;;5027157;28;20034;-67
2022/04/06 12:20:47;;;;;;;15.40;3.03;;;12.10;99.90;;;;;;5025670;28;20408;-68
2022/04/06 12:23:14;;;;;;;12.48;3.58;;;12.10;99.90;;;;;;5028408;28;20033;-67
2022/04/06 12:25:41;;;;;;;11.20;2.55;;;12.10;99.90;;;;;;5025999;28;20048;-67
2022/04/06 12:28:21;;;;;;;18.15;3.42;;;12.20;99.90;;;;;;5028259;28;20040;-68
2022/04/06 12:30:54;;;;;;;21.33;3.40;;;12.20;99.90;;;;;;5026175;28;20460;-67
2022/04/06 12:33:43;;;;;;;6.75;2.75;;;12.20;99.90;;;;;;5026162;28;20057;-67
2022/04/06 12:36:11;;;;;;;11.30;2.85;;;12.20;99.90;;;;;;5012608;28;20049;-67
2022/04/06 12:38:38;;;;;;;11.85;2.88;;;12.20;99.90;;;;;;5026460;28;20035;-70
2022/04/06 12:41:11;;;;;;;9.70;3.13;;;12.20;99.90;;;;;;5029832;28;20107;-67
2022/04/06 12:43:43;;;;;;;;;;;12.10;99.90;;;;;;5026414;28;20034;-67
2022/04/06 12:46:09;;;;;;;10.05;2.45;;;12.00;99.90;;;;;;5010053;28;19917;-70
2022/04/06 12:48:34;;;;;;;11.50;3.00;;;12.00;99.90;;;;;;5026397;28;20397;-67
2022/04/06 12:51:21;;;;;;;7.93;2.83;;;12.00;99.90;;;;;;5029569;28;20033;-67
2022/04/06 12:53:51;;;;;;;7.95;2.33;;;12.00;99.90;;;;;;5027475;28;20037;-67
2022/04/06 12:56:24;;;;;;;14.70;2.75;;;12.10;99.90;;;;;;5025927;28;20037;-67
2022/04/06 12:59:09;;;;;;;6.88;2.60;;;12.10;99.90;;;;;;5025367;28;20532;-67